KIND/IND METAR and TAF weather

Enter ICAO airport designator
Station Type Date Time Source
KIND METAR 2019/08/20 09:08 UTC NOAA

KIND 200908Z 04003KT 10SM TS SCT045CB BKN100 BKN250 24/23 A3005 RMK AO2 LTG DSNT W AND NW TSB02 FRQ LTGICCC OHD TS OHD MOV E T02440228 $


Station Type Date Time Source
KIND Decoded METAR 2019/08/20 09:08 UTC NOAA

INDIANAPOLIS INTERNATIONAL AIRPORT , IN, United States (KIND) 39-43N 86-17W 242M
Aug 20, 2019 - 05:08 AM EDT / 2019.08.20 0908 UTC
Wind: from the NE (040 degrees) at 3 MPH (3 KT):0
Visibility: 10 mile(s):0
Sky conditions: mostly cloudy
Weather: thunder; Cumulonimbus clouds, lightning observed
Temperature: 75.9 F (24.4 C)
Dew Point: 73.0 F (22.8 C)
Relative Humidity: 90%
Pressure (altimeter): 30.05 in. Hg (1017 hPa)
ob: KIND 200908Z 04003KT 10SM TS SCT045CB BKN100 BKN250 24/23 A3005 RMK AO2 LTG DSNT W AND NW TSB02 FRQ LTGICCC OHD TS OHD MOV E T02440228
cycle: 9

Station Type Date Time Source
KIND TAF 2019/08/20 09:16 UTC NOAA

TAF
AMD KIND 200914Z 2009/2112 10003KT P6SM FEW070 FEW250
TEMPO 2009/2011 TS SCT045CB BKN110
FM201500 19005KT P6SM BKN200
FM201900 25010KT P6SM VCTS BKN040CB
FM210000 23007KT P6SM SCT040 BKN150

Example: see airport list